createdAt,value
2023-02-14T00:00:22.167Z,95038.66
2023-02-14T00:01:18.908Z,95020.63
2023-02-14T00:02:15.474Z,95037.31
2023-02-14T00:03:14.500Z,95049.78
2023-02-14T00:04:11.834Z,94967.34
2023-02-14T00:05:08.729Z,94987.69
2023-02-14T00:06:09.991Z,95051.22
2023-02-14T00:07:06.697Z,95048.41
2023-02-14T00:08:03.320Z,95045.47
2023-02-14T00:08:59.967Z,95055.09
2023-02-14T00:09:56.570Z,95002.19
2023-02-14T00:10:53.166Z,95056.81
2023-02-14T00:11:50.238Z,95048.16
2023-02-14T00:12:46.832Z,95048.81
2023-02-14T00:14:03.330Z,95054.72
2023-02-14T00:15:18.473Z,95030.56
2023-02-14T00:16:15.108Z,94993.59
2023-02-14T00:17:11.692Z,95050.88
2023-02-14T00:18:08.283Z,95053.41
2023-02-14T00:19:04.967Z,95051.81
2023-02-14T00:20:01.566Z,95025.50
2023-02-14T00:21:00.669Z,95048.16
2023-02-14T00:21:57.576Z,95030.16
2023-02-14T00:22:54.282Z,95054.47
2023-02-14T00:23:50.909Z,95040.19
2023-02-14T00:24:47.655Z,95044.09
2023-02-14T00:25:44.237Z,95048.53
2023-02-14T00:26:41.814Z,95052.41
2023-02-14T00:27:38.422Z,95046.75
2023-02-14T00:28:34.949Z,95047.06
2023-02-14T00:29:33.071Z,94970.56
2023-02-14T00:30:29.966Z,95054.66
2023-02-14T00:31:26.838Z,95049.91
2023-02-14T00:32:23.772Z,95045.44
2023-02-14T00:33:20.396Z,95040.78
2023-02-14T00:34:18.335Z,95046.75
2023-02-14T00:35:14.902Z,95043.69
2023-02-14T00:36:12.129Z,95041.56
2023-02-14T00:37:09.017Z,94985.91
2023-02-14T00:38:05.703Z,95024.88
2023-02-14T00:39:07.189Z,95047.66
2023-02-14T00:40:05.798Z,95056.41
2023-02-14T00:41:03.050Z,95042.91
2023-02-14T00:41:59.628Z,95042.16
2023-02-14T00:42:56.185Z,95006.31
2023-02-14T00:43:54.065Z,95039.25
2023-02-14T00:44:50.650Z,95048.13
2023-02-14T00:45:47.220Z,95040.50
2023-02-14T00:46:44.341Z,95031.88
2023-02-14T00:47:40.941Z,95028.06
2023-02-14T00:48:37.615Z,95028.50
2023-02-14T00:49:34.320Z,95037.16
2023-02-14T00:50:30.922Z,95028.38
2023-02-14T00:51:27.642Z,95038.00
2023-02-14T00:52:24.213Z,95039.81
2023-02-14T00:53:20.834Z,95037.41
2023-02-14T00:54:17.508Z,95024.59
2023-02-14T00:55:14.096Z,95036.44
2023-02-14T00:56:10.829Z,95028.81
2023-02-14T00:57:07.409Z,95038.38
2023-02-14T00:58:03.996Z,95027.50
2023-02-14T00:59:00.605Z,95036.16
2023-02-14T00:59:57.237Z,95028.28
2023-02-14T01:00:53.968Z,95031.97
2023-02-14T01:01:50.738Z,95000.06
2023-02-14T01:02:47.391Z,95025.44
2023-02-14T01:03:44.065Z,95012.00
2023-02-14T01:04:40.656Z,95006.31
2023-02-14T01:05:37.277Z,95021.84
2023-02-14T01:06:34.124Z,95026.56
2023-02-14T01:07:30.779Z,95019.88
2023-02-14T01:08:27.511Z,95019.00
2023-02-14T01:09:24.185Z,94999.41
2023-02-14T01:10:20.810Z,95025.44
2023-02-14T01:11:19.958Z,94927.38
2023-02-14T01:12:16.496Z,94953.13
2023-02-14T01:13:14.265Z,95024.72
2023-02-14T01:14:11.470Z,95024.91
2023-02-14T01:15:08.495Z,95017.66
2023-02-14T01:16:11.185Z,94991.78
2023-02-14T01:17:07.822Z,95010.47
2023-02-14T01:18:04.453Z,94977.00
2023-02-14T01:19:01.374Z,95003.31
2023-02-14T01:19:57.953Z,94966.56
2023-02-14T01:20:54.581Z,95013.03
2023-02-14T01:21:51.118Z,95012.00
2023-02-14T01:22:47.667Z,95013.25
2023-02-14T01:23:44.892Z,94980.91
2023-02-14T01:24:41.465Z,94998.69
2023-02-14T01:25:39.019Z,94998.06
2023-02-14T01:26:36.180Z,95004.59
2023-02-14T01:27:33.330Z,95000.47
2023-02-14T01:28:29.921Z,95003.81
2023-02-14T01:29:26.472Z,95019.50
2023-02-14T01:30:23.131Z,95001.50
2023-02-14T01:31:22.601Z,95000.31
2023-02-14T01:32:19.326Z,94926.53
2023-02-14T01:33:15.859Z,94990.56
2023-02-14T01:34:12.882Z,94950.31
2023-02-14T01:35:10.227Z,94988.97
2023-02-14T01:36:07.601Z,94953.22
2023-02-14T01:37:04.189Z,94982.88
2023-02-14T01:38:00.728Z,94983.84
2023-02-14T01:39:00.380Z,94987.97
2023-02-14T01:39:56.933Z,94981.22
2023-02-14T01:40:53.613Z,94927.22
2023-02-14T01:41:50.290Z,94971.16
2023-02-14T01:42:46.941Z,94980.81
2023-02-14T01:44:06.002Z,94970.16
2023-02-14T01:45:06.212Z,94973.66
2023-02-14T01:46:02.891Z,94967.34
2023-02-14T01:47:03.223Z,94902.81
2023-02-14T01:48:00.268Z,94980.56
2023-02-14T01:49:09.098Z,94836.09
2023-02-14T01:50:14.860Z,94976.53
2023-02-14T01:51:11.597Z,94974.22
2023-02-14T01:52:22.408Z,94977.41
2023-02-14T01:53:24.973Z,94983.22
2023-02-14T01:54:24.253Z,94927.50
2023-02-14T01:55:24.808Z,94987.53
2023-02-14T01:56:27.530Z,94983.16
2023-02-14T01:57:29.411Z,94983.59
2023-02-14T01:58:29.575Z,94973.06
2023-02-14T01:59:31.206Z,95000.50
2023-02-14T02:00:46.660Z,94980.09
2023-02-14T02:01:45.123Z,94981.25
2023-02-14T02:02:41.741Z,94897.41
2023-02-14T02:03:44.271Z,94978.19
2023-02-14T02:04:46.880Z,94900.72
2023-02-14T02:05:48.843Z,94983.00
2023-02-14T02:06:52.297Z,94959.06
2023-02-14T02:07:50.444Z,94967.00
2023-02-14T02:09:31.220Z,94968.38
2023-02-14T02:10:29.154Z,94854.97
2023-02-14T02:11:26.623Z,94921.19
2023-02-14T02:12:23.623Z,94966.22
2023-02-14T02:13:22.103Z,94976.13
2023-02-14T02:14:21.756Z,94957.75
2023-02-14T02:15:19.304Z,94947.06
2023-02-14T02:16:28.208Z,94950.53
2023-02-14T02:17:39.828Z,94956.88
2023-02-14T02:18:55.085Z,94950.78
2023-02-14T02:20:29.091Z,94925.19
2023-02-14T02:21:55.022Z,94949.03
2023-02-14T02:23:13.241Z,94950.69
2023-02-14T02:24:34.571Z,94958.78
2023-02-14T02:25:52.942Z,94946.84
2023-02-14T02:26:49.529Z,94948.38
2023-02-14T02:28:15.452Z,94941.69
2023-02-14T02:29:26.892Z,94944.38
2023-02-14T02:30:45.215Z,94948.66
2023-02-14T02:31:47.594Z,94943.97
2023-02-14T02:32:55.667Z,94941.59
2023-02-14T02:34:01.316Z,94943.09
2023-02-14T02:35:30.648Z,94936.13
2023-02-14T02:36:55.282Z,94934.19
2023-02-14T02:37:51.819Z,94939.28
2023-02-14T02:39:05.691Z,94882.88
2023-02-14T02:40:21.056Z,94935.00
2023-02-14T02:41:24.177Z,94938.72
2023-02-14T02:42:46.511Z,94916.53
2023-02-14T02:44:07.911Z,94929.13
2023-02-14T02:45:58.670Z,94939.28
2023-02-14T02:47:07.885Z,94940.88
2023-02-14T02:48:15.367Z,94942.69
2023-02-14T02:49:45.478Z,94949.75
2023-02-14T02:51:04.945Z,94947.50
2023-02-14T02:52:22.893Z,94927.13
2023-02-14T02:53:41.247Z,94947.03
2023-02-14T02:54:44.704Z,94883.63
2023-02-14T02:56:16.434Z,94944.50
2023-02-14T02:57:20.012Z,94947.78
2023-02-14T02:58:18.570Z,94938.34
2023-02-14T02:59:21.085Z,94943.09
2023-02-14T03:00:18.964Z,94923.59
2023-02-14T03:01:20.874Z,94937.63
2023-02-14T03:02:29.660Z,94938.56
2023-02-14T03:03:46.708Z,94937.75
2023-02-14T03:04:55.991Z,94937.09
2023-02-14T03:05:52.888Z,94917.25
2023-02-14T03:06:50.754Z,94919.31
2023-02-14T03:07:48.954Z,94942.28
2023-02-14T03:08:45.541Z,94882.41
2023-02-14T03:09:42.216Z,94933.81
2023-02-14T03:10:39.625Z,94887.88
2023-02-14T03:11:39.644Z,94934.69
2023-02-14T03:12:38.801Z,94925.34
2023-02-14T03:13:49.388Z,94917.44
2023-02-14T03:15:02.716Z,94909.50
2023-02-14T03:16:20.485Z,94922.56
2023-02-14T03:17:34.626Z,94920.56
2023-02-14T03:19:02.067Z,94923.59
2023-02-14T03:20:20.264Z,94918.69
2023-02-14T03:21:34.202Z,94892.69
2023-02-14T03:22:43.670Z,94866.56
2023-02-14T03:23:51.655Z,94894.84
2023-02-14T03:25:11.641Z,94903.78
2023-02-14T03:26:18.479Z,94907.34
2023-02-14T03:27:27.061Z,94848.59
2023-02-14T03:28:42.735Z,94916.53
2023-02-14T03:29:58.854Z,94913.22
2023-02-14T03:31:06.982Z,94816.75
2023-02-14T03:32:21.827Z,94918.88
2023-02-14T03:33:32.143Z,94868.47
2023-02-14T03:34:41.083Z,94917.44
2023-02-14T03:35:51.922Z,94913.06
2023-02-14T03:36:59.114Z,94911.47
2023-02-14T03:38:00.556Z,94910.66
2023-02-14T03:39:15.517Z,94821.75
2023-02-14T03:40:19.542Z,94912.09
2023-02-14T03:41:23.842Z,94876.38
2023-02-14T03:42:28.590Z,94909.56
2023-02-14T03:43:31.786Z,94809.38
2023-02-14T03:44:31.095Z,94903.16
2023-02-14T03:45:39.574Z,94889.78
2023-02-14T03:46:41.658Z,94899.31
2023-02-14T03:47:41.958Z,94897.41
2023-02-14T03:48:40.789Z,94899.47
2023-02-14T03:49:41.444Z,94879.25
2023-02-14T03:50:41.162Z,94888.88
2023-02-14T03:51:39.159Z,94889.16
2023-02-14T03:52:37.816Z,94891.25
2023-02-14T03:53:38.633Z,94889.19
2023-02-14T03:54:36.413Z,94888.38
2023-02-14T03:55:40.437Z,94886.97
2023-02-14T03:56:48.258Z,94887.75
2023-02-14T03:57:58.689Z,94893.38
2023-02-14T03:59:00.844Z,94839.59
2023-02-14T03:59:57.800Z,94891.19
2023-02-14T04:01:00.848Z,94838.06
2023-02-14T04:02:29.843Z,94886.44
2023-02-14T04:03:29.309Z,94839.81
2023-02-14T04:04:28.905Z,94885.72
2023-02-14T04:05:28.075Z,94889.06
2023-02-14T04:06:24.773Z,94889.53
2023-02-14T04:07:23.108Z,94886.78
2023-02-14T04:08:25.695Z,94880.03
2023-02-14T04:09:22.290Z,94841.84
2023-02-14T04:10:20.049Z,94886.03
2023-02-14T04:11:16.768Z,94896.94
2023-02-14T04:12:15.544Z,94865.59
2023-02-14T04:13:12.675Z,94819.31
2023-02-14T04:14:09.313Z,94852.59
2023-02-14T04:15:06.590Z,94866.38
2023-02-14T04:16:03.699Z,94879.34
2023-02-14T04:17:18.989Z,94872.09
2023-02-14T04:18:34.307Z,94848.50
2023-02-14T04:19:30.955Z,94872.91
2023-02-14T04:20:28.674Z,94872.72
2023-02-14T04:21:25.617Z,94855.84
2023-02-14T04:22:22.202Z,94871.81
2023-02-14T04:23:18.807Z,94877.16
2023-02-14T04:24:15.408Z,94847.28
2023-02-14T04:25:12.834Z,94872.16
2023-02-14T04:26:09.506Z,94862.44
2023-02-14T04:27:13.010Z,94734.53
2023-02-14T04:28:10.019Z,94864.38
2023-02-14T04:29:06.594Z,94866.13
2023-02-14T04:30:03.738Z,94822.16
2023-02-14T04:31:05.424Z,94871.19
2023-02-14T04:32:02.236Z,94872.44
2023-02-14T04:32:58.894Z,94873.03
2023-02-14T04:33:55.896Z,94874.88
2023-02-14T04:34:52.551Z,94869.56
2023-02-14T04:35:49.218Z,94861.88
2023-02-14T04:36:45.797Z,94865.34
2023-02-14T04:37:42.603Z,94803.97
2023-02-14T04:38:39.314Z,94864.97
2023-02-14T04:39:36.486Z,94819.63
2023-02-14T04:40:33.186Z,94830.22
2023-02-14T04:41:29.742Z,94858.91
2023-02-14T04:42:26.382Z,94855.00
2023-02-14T04:43:22.937Z,94759.88
2023-02-14T04:44:19.568Z,94853.41
2023-02-14T04:45:16.142Z,94845.03
2023-02-14T04:46:12.745Z,94854.53
2023-02-14T04:47:09.664Z,94784.88
2023-02-14T04:48:06.301Z,94839.81
2023-02-14T04:49:02.943Z,94848.53
2023-02-14T04:49:59.537Z,94844.69
2023-02-14T04:50:56.425Z,94853.97
2023-02-14T04:51:53.137Z,94792.06
2023-02-14T04:52:49.757Z,94850.41
2023-02-14T04:53:46.545Z,94851.75
2023-02-14T04:54:43.360Z,94842.44
2023-02-14T04:55:39.946Z,94822.84
2023-02-14T04:56:36.995Z,94878.66
2023-02-14T04:57:33.664Z,94848.97
2023-02-14T04:58:30.228Z,94833.06
2023-02-14T04:59:26.941Z,94836.34
2023-02-14T05:00:24.283Z,94850.00
2023-02-14T05:01:21.045Z,94849.72
2023-02-14T05:02:17.803Z,94847.25
2023-02-14T05:03:14.458Z,94848.53
2023-02-14T05:04:12.488Z,94844.09
2023-02-14T05:05:09.121Z,94790.63
2023-02-14T05:06:05.999Z,94846.63
2023-02-14T05:07:03.001Z,94855.41
2023-02-14T05:07:59.649Z,94819.06
2023-02-14T05:08:56.758Z,94844.63
2023-02-14T05:09:53.365Z,94849.13
2023-02-14T05:10:49.938Z,94844.69
2023-02-14T05:11:46.520Z,94809.16
2023-02-14T05:12:43.295Z,94837.75
2023-02-14T05:13:39.964Z,94852.78
2023-02-14T05:14:36.623Z,94848.53
2023-02-14T05:15:33.333Z,94845.91
2023-02-14T05:16:29.938Z,94847.66
2023-02-14T05:17:26.555Z,94842.56
2023-02-14T05:18:23.148Z,94851.66
2023-02-14T05:19:19.857Z,94846.72
2023-02-14T05:20:16.584Z,94707.00
2023-02-14T05:21:13.568Z,94809.56
2023-02-14T05:22:12.505Z,94848.53
2023-02-14T05:23:13.742Z,94853.59
2023-02-14T05:24:12.521Z,94849.31
2023-02-14T05:25:09.191Z,94839.97
2023-02-14T05:26:06.068Z,94857.31
2023-02-14T05:27:02.771Z,94845.84
2023-02-14T05:27:59.422Z,94846.53
2023-02-14T05:28:56.765Z,94844.72
2023-02-14T05:29:53.420Z,94842.72
2023-02-14T05:30:51.419Z,94836.34
2023-02-14T05:31:48.147Z,94852.88
2023-02-14T05:32:44.770Z,94845.50
2023-02-14T05:33:41.381Z,94848.91
2023-02-14T05:34:37.988Z,94836.50
2023-02-14T05:35:34.652Z,94847.66
2023-02-14T05:36:31.327Z,94840.91
2023-02-14T05:37:27.944Z,94839.03
2023-02-14T05:38:24.602Z,94847.09
2023-02-14T05:39:21.281Z,94845.13
2023-02-14T05:40:18.125Z,94850.31
2023-02-14T05:41:14.777Z,94739.81
2023-02-14T05:42:12.846Z,94846.25
2023-02-14T05:43:10.154Z,94847.53
2023-02-14T05:44:06.847Z,94846.16
2023-02-14T05:45:03.511Z,94842.34
2023-02-14T05:46:00.282Z,94841.47
2023-02-14T05:46:56.925Z,94839.59
2023-02-14T05:47:53.496Z,94836.41
2023-02-14T05:48:50.084Z,94660.09
2023-02-14T05:49:46.630Z,94837.38
2023-02-14T05:50:45.242Z,94838.97
2023-02-14T05:51:41.845Z,94835.72
2023-02-14T05:52:38.662Z,94821.56
2023-02-14T05:53:35.698Z,94842.34
2023-02-14T05:54:32.287Z,94831.25
2023-02-14T05:55:28.972Z,94844.28
2023-02-14T05:56:25.711Z,94736.72
2023-02-14T05:57:22.397Z,94848.19
2023-02-14T05:58:18.969Z,94758.97
2023-02-14T05:59:15.646Z,94737.75
2023-02-14T06:00:12.952Z,94842.09
2023-02-14T06:01:09.571Z,94844.03
2023-02-14T06:02:06.291Z,94838.69
2023-02-14T06:03:03.220Z,94787.00
2023-02-14T06:03:59.796Z,94840.75
2023-02-14T06:04:56.407Z,94814.81
2023-02-14T06:05:52.995Z,94777.97
2023-02-14T06:06:49.581Z,94855.84
2023-02-14T06:07:50.650Z,94855.47
2023-02-14T06:08:47.299Z,94856.34
2023-02-14T06:09:43.881Z,94854.66
2023-02-14T06:10:40.581Z,94866.00
2023-02-14T06:11:37.225Z,94855.38
2023-02-14T06:12:33.815Z,94861.09
2023-02-14T06:13:30.774Z,94853.72
2023-02-14T06:14:27.634Z,94851.03
2023-02-14T06:15:24.460Z,94851.59
2023-02-14T06:16:21.151Z,94856.63
2023-02-14T06:17:17.765Z,94856.91
2023-02-14T06:18:15.220Z,94858.03
2023-02-14T06:19:11.812Z,94858.88
2023-02-14T06:20:12.345Z,94853.09
2023-02-14T06:21:08.923Z,94804.03
2023-02-14T06:22:05.621Z,94863.34
2023-02-14T06:23:02.569Z,94818.53
2023-02-14T06:23:59.203Z,94864.41
2023-02-14T06:24:55.794Z,94801.78
2023-02-14T06:25:52.353Z,94762.34
2023-02-14T06:26:48.925Z,94858.66
2023-02-14T06:27:49.058Z,94853.34
2023-02-14T06:28:45.849Z,94860.31
2023-02-14T06:29:42.422Z,94857.41
2023-02-14T06:30:39.227Z,94795.00
2023-02-14T06:31:36.263Z,94855.53
2023-02-14T06:32:32.957Z,94862.66
2023-02-14T06:33:29.576Z,94854.56
2023-02-14T06:34:26.146Z,94852.75
2023-02-14T06:35:23.108Z,94856.16
2023-02-14T06:36:21.796Z,94857.53
2023-02-14T06:37:18.407Z,94853.78
2023-02-14T06:38:15.067Z,94787.47
2023-02-14T06:39:11.679Z,94861.50
2023-02-14T06:40:10.127Z,94861.19
2023-02-14T06:41:08.219Z,94826.66
2023-02-14T06:42:04.966Z,94843.56
2023-02-14T06:43:01.628Z,94850.50
2023-02-14T06:43:58.244Z,94856.09
2023-02-14T06:44:54.832Z,94859.84
2023-02-14T06:45:51.469Z,94860.69
2023-02-14T06:46:48.088Z,94790.16
2023-02-14T06:47:46.027Z,94853.88
2023-02-14T06:48:43.067Z,94857.81
2023-02-14T06:49:39.981Z,94815.50
2023-02-14T06:50:37.458Z,94846.28
2023-02-14T06:51:34.067Z,94847.81
2023-02-14T06:52:34.014Z,94839.59
2023-02-14T06:53:30.590Z,94843.34
2023-02-14T06:54:27.271Z,94847.09
2023-02-14T06:55:23.886Z,94847.56
2023-02-14T06:56:20.479Z,94843.41
2023-02-14T06:57:17.066Z,94849.22
2023-02-14T06:58:14.077Z,94848.72
2023-02-14T06:59:10.862Z,94843.19
2023-02-14T07:00:08.571Z,94839.00
2023-02-14T07:01:05.464Z,94787.22
2023-02-14T07:02:02.101Z,94750.13
2023-02-14T07:02:58.783Z,94829.03
2023-02-14T07:03:55.463Z,94819.81
2023-02-14T07:04:52.164Z,94830.38
2023-02-14T07:05:48.909Z,94833.50
2023-02-14T07:06:46.304Z,94804.06
2023-02-14T07:07:42.920Z,94734.66
2023-02-14T07:08:39.540Z,94827.22
2023-02-14T07:09:36.290Z,94828.78
2023-02-14T07:10:34.292Z,94775.94
2023-02-14T07:11:30.923Z,94840.34
2023-02-14T07:12:27.494Z,94829.34
2023-02-14T07:13:25.264Z,94838.81
2023-02-14T07:14:21.873Z,94829.88
2023-02-14T07:15:18.810Z,94831.19
2023-02-14T07:16:15.414Z,94837.50
2023-02-14T07:17:12.084Z,94812.75
2023-02-14T07:18:10.586Z,94836.72
2023-02-14T07:19:07.258Z,94833.81
2023-02-14T07:20:04.994Z,94839.31
2023-02-14T07:21:02.076Z,94835.13
2023-02-14T07:21:58.948Z,94833.50
2023-02-14T07:22:55.683Z,94834.84
2023-02-14T07:23:52.279Z,94828.00
2023-02-14T07:24:48.936Z,94840.59
2023-02-14T07:25:45.619Z,94740.72
2023-02-14T07:26:42.242Z,94832.97
2023-02-14T07:27:39.576Z,94842.22
2023-02-14T07:28:36.256Z,94846.56
2023-02-14T07:29:32.931Z,94845.84
2023-02-14T07:30:29.675Z,94843.22
2023-02-14T07:31:26.390Z,94843.44
2023-02-14T07:32:23.666Z,94834.56
2023-02-14T07:33:20.427Z,94818.03
2023-02-14T07:34:17.085Z,94756.47
2023-02-14T07:35:15.261Z,94791.69
2023-02-14T07:36:12.039Z,94839.44
2023-02-14T07:37:08.831Z,94828.47
2023-02-14T07:38:05.492Z,94835.75
2023-02-14T07:39:02.073Z,94844.69
2023-02-14T07:39:58.742Z,94844.47
2023-02-14T07:40:55.336Z,94830.72
2023-02-14T07:41:51.943Z,94737.88
2023-02-14T07:42:58.708Z,94830.38
2023-02-14T07:43:55.255Z,94827.25
2023-02-14T07:44:51.890Z,94841.38
2023-02-14T07:45:48.938Z,94841.97
2023-02-14T07:46:45.524Z,94841.28
2023-02-14T07:47:42.089Z,94816.31
2023-02-14T07:48:39.368Z,94843.84
2023-02-14T07:49:36.634Z,94845.91
2023-02-14T07:50:33.277Z,94849.44
2023-02-14T07:51:29.907Z,94850.44
2023-02-14T07:52:26.807Z,94757.78
2023-02-14T07:53:24.570Z,94842.81
2023-02-14T07:54:21.316Z,94848.19
2023-02-14T07:55:19.350Z,94845.47
2023-02-14T07:56:16.051Z,94850.97
2023-02-14T07:57:12.645Z,94854.19
2023-02-14T07:58:09.451Z,94808.22
2023-02-14T07:59:06.015Z,94854.25
2023-02-14T08:00:03.718Z,94845.22
2023-02-14T08:01:00.695Z,94850.78
2023-02-14T08:01:57.526Z,94849.97
2023-02-14T08:02:56.083Z,94845.94
2023-02-14T08:03:52.753Z,94858.69
2023-02-14T08:04:49.328Z,94855.47
2023-02-14T08:05:57.115Z,94784.03
2023-02-14T08:06:54.612Z,94862.31
2023-02-14T08:07:51.178Z,94858.56
2023-02-14T08:08:48.330Z,94805.91
2023-02-14T08:09:44.973Z,94859.84
2023-02-14T08:10:41.522Z,94820.88
2023-02-14T08:11:57.005Z,94867.88
2023-02-14T08:12:59.304Z,94864.44
2023-02-14T08:13:55.910Z,94863.38
2023-02-14T08:14:52.508Z,94854.66
2023-02-14T08:16:11.789Z,94866.47
2023-02-14T08:17:10.199Z,94861.84
2023-02-14T08:18:06.766Z,94867.31
2023-02-14T08:19:03.934Z,94869.56
2023-02-14T08:20:00.506Z,94876.00
2023-02-14T08:20:57.494Z,94877.53
2023-02-14T08:21:54.290Z,94872.94
2023-02-14T08:22:50.925Z,94870.22
2023-02-14T08:23:47.688Z,94869.63
2023-02-14T08:24:45.114Z,94782.41
2023-02-14T08:25:41.810Z,94793.44
2023-02-14T08:26:38.336Z,94869.66
2023-02-14T08:27:34.984Z,94867.44
2023-02-14T08:28:33.274Z,94691.19
2023-02-14T08:29:30.002Z,94846.91
2023-02-14T08:30:26.632Z,94853.41
2023-02-14T08:31:35.275Z,94858.22
2023-02-14T08:32:32.787Z,94851.59
2023-02-14T08:33:29.678Z,94876.00
2023-02-14T08:34:26.414Z,94851.81
2023-02-14T08:35:25.072Z,94862.31
2023-02-14T08:36:22.851Z,94844.38
2023-02-14T08:37:19.489Z,94863.38
2023-02-14T08:38:16.160Z,94881.66
2023-02-14T08:39:12.810Z,94868.66
2023-02-14T08:40:09.889Z,94875.47
2023-02-14T08:41:08.812Z,94877.19
2023-02-14T08:42:06.590Z,94897.88
2023-02-14T08:43:05.728Z,94855.72
2023-02-14T08:44:02.932Z,94874.28
2023-02-14T08:44:59.636Z,94818.81
2023-02-14T08:45:56.242Z,94872.81
2023-02-14T08:46:52.916Z,94837.72
2023-02-14T08:47:49.587Z,94864.53
2023-02-14T08:48:46.242Z,94867.59
2023-02-14T08:49:42.867Z,94866.28
2023-02-14T08:50:40.343Z,94865.97
2023-02-14T08:51:36.928Z,94865.78
2023-02-14T08:52:33.514Z,94864.88
2023-02-14T08:53:30.177Z,94861.22
2023-02-14T08:54:26.741Z,94815.91
2023-02-14T08:55:23.369Z,94866.44
2023-02-14T08:56:22.613Z,94840.47
2023-02-14T08:57:19.260Z,94870.50
2023-02-14T08:58:15.949Z,94867.03
2023-02-14T08:59:12.614Z,94866.53
2023-02-14T09:00:09.953Z,94854.13
2023-02-14T09:01:14.507Z,94859.66
2023-02-14T09:02:14.677Z,94857.47
2023-02-14T09:03:11.268Z,94863.38
2023-02-14T09:04:08.046Z,94863.31
2023-02-14T09:05:06.227Z,94865.53
2023-02-14T09:06:07.581Z,94864.03
2023-02-14T09:07:04.655Z,94839.03
2023-02-14T09:08:02.854Z,94850.34
2023-02-14T09:09:01.506Z,94854.59
2023-02-14T09:09:59.215Z,94820.59
2023-02-14T09:10:55.818Z,94854.66
2023-02-14T09:11:52.419Z,94776.22
2023-02-14T09:12:49.017Z,94842.53
2023-02-14T09:13:46.619Z,94777.13
2023-02-14T09:14:44.145Z,94852.41
2023-02-14T09:15:40.802Z,94828.72
2023-02-14T09:16:37.461Z,94857.53
2023-02-14T09:17:34.340Z,94838.72
2023-02-14T09:18:30.970Z,94824.28
2023-02-14T09:19:27.655Z,94846.81
2023-02-14T09:20:24.372Z,94855.97
2023-02-14T09:21:25.299Z,94859.16
2023-02-14T09:22:22.123Z,94858.91
2023-02-14T09:23:18.797Z,94835.00
2023-02-14T09:24:15.412Z,94856.72
2023-02-14T09:25:12.727Z,94856.06
2023-02-14T09:26:12.318Z,94851.59
2023-02-14T09:27:09.468Z,94857.22
2023-02-14T09:28:06.049Z,94863.44
2023-02-14T09:29:02.666Z,94827.72
2023-02-14T09:29:59.347Z,94852.16
2023-02-14T09:30:56.518Z,94838.81
2023-02-14T09:31:54.266Z,94864.47
2023-02-14T09:32:52.455Z,94859.47
2023-02-14T09:33:50.342Z,94847.94
2023-02-14T09:34:46.925Z,94822.31
2023-02-14T09:35:43.498Z,94857.13
2023-02-14T09:36:59.445Z,94851.25
2023-02-14T09:37:56.047Z,94854.00
2023-02-14T09:38:52.581Z,94850.06
2023-02-14T09:39:49.164Z,94857.28
2023-02-14T09:40:46.660Z,94839.66
2023-02-14T09:41:51.057Z,94843.41
2023-02-14T09:43:01.765Z,94845.44
2023-02-14T09:44:08.002Z,94842.50
2023-02-14T09:45:18.829Z,94829.50
2023-02-14T09:46:18.527Z,94818.00
2023-02-14T09:47:44.409Z,94849.13
2023-02-14T09:48:45.093Z,94835.78
2023-02-14T09:49:42.546Z,94820.84
2023-02-14T09:50:45.283Z,94844.13
2023-02-14T09:51:47.739Z,94845.91
2023-02-14T09:52:46.974Z,94838.28
2023-02-14T09:53:51.391Z,94835.75
2023-02-14T09:54:54.689Z,94811.91
2023-02-14T09:56:11.655Z,94806.34
2023-02-14T09:57:21.925Z,94840.91
2023-02-14T09:58:59.423Z,94838.41
2023-02-14T10:00:23.397Z,94834.47
2023-02-14T10:01:35.335Z,94831.31
2023-02-14T10:02:47.517Z,94842.81
2023-02-14T10:03:57.372Z,94843.84
2023-02-14T10:05:06.990Z,94826.72
2023-02-14T10:06:18.316Z,94818.75
2023-02-14T10:07:33.855Z,94828.22
2023-02-14T10:09:09.907Z,94832.47
2023-02-14T10:10:18.974Z,94825.63
2023-02-14T10:11:22.093Z,94820.84
2023-02-14T10:12:37.751Z,94826.91
2023-02-14T10:13:49.415Z,94824.09
2023-02-14T10:14:47.417Z,94828.78
2023-02-14T10:15:48.616Z,94819.13
2023-02-14T10:16:56.592Z,94821.00
2023-02-14T10:17:58.903Z,94820.75
2023-02-14T10:19:01.682Z,94825.53
2023-02-14T10:20:04.711Z,94818.91
2023-02-14T10:21:03.056Z,94741.94
2023-02-14T10:22:07.052Z,94809.22
2023-02-14T10:23:32.449Z,94811.75
2023-02-14T10:24:36.014Z,94816.88
2023-02-14T10:25:43.934Z,94809.69
2023-02-14T10:26:41.416Z,94818.19
2023-02-14T10:27:42.500Z,94822.25
2023-02-14T10:28:47.222Z,94826.78
2023-02-14T10:29:43.917Z,94810.00
2023-02-14T10:30:47.252Z,94815.19
2023-02-14T10:31:56.554Z,94824.22
2023-02-14T10:33:16.099Z,94821.94
2023-02-14T10:34:16.090Z,94822.50
2023-02-14T10:35:27.828Z,94820.19
2023-02-14T10:36:41.264Z,94814.59
2023-02-14T10:38:13.410Z,94821.00
2023-02-14T10:39:28.698Z,94819.59
2023-02-14T10:40:55.176Z,94775.66
2023-02-14T10:42:11.891Z,94812.09
2023-02-14T10:43:30.972Z,94812.47
2023-02-14T10:44:46.306Z,94810.19
2023-02-14T10:45:55.374Z,94732.44
2023-02-14T10:47:02.866Z,94806.19
2023-02-14T10:48:17.099Z,94804.72
2023-02-14T10:49:25.868Z,94810.81
2023-02-14T10:50:52.880Z,94801.47
2023-02-14T10:52:24.189Z,94809.84
2023-02-14T10:53:36.272Z,94795.44
2023-02-14T10:54:39.090Z,94802.00
2023-02-14T10:55:59.636Z,94799.00
2023-02-14T10:57:02.685Z,94784.44
2023-02-14T10:58:02.831Z,94750.41
2023-02-14T10:59:08.775Z,94787.53
2023-02-14T11:00:11.571Z,94795.75
2023-02-14T11:01:15.328Z,94797.09
2023-02-14T11:02:17.248Z,94797.50
2023-02-14T11:03:14.617Z,94770.13
2023-02-14T11:04:15.861Z,94801.75
2023-02-14T11:05:23.968Z,94800.75
2023-02-14T11:06:20.621Z,94780.13
2023-02-14T11:07:19.683Z,94794.81
2023-02-14T11:08:24.620Z,94797.66
2023-02-14T11:09:21.490Z,94794.50
2023-02-14T11:10:24.370Z,94706.47
2023-02-14T11:11:25.098Z,94797.56
2023-02-14T11:12:38.284Z,94752.91
2023-02-14T11:13:37.468Z,94804.81
2023-02-14T11:14:37.338Z,94806.25
2023-02-14T11:15:39.147Z,94785.19
2023-02-14T11:16:37.582Z,94807.53
2023-02-14T11:17:36.014Z,94805.09
2023-02-14T11:18:35.851Z,94803.28
2023-02-14T11:19:37.483Z,94750.34
2023-02-14T11:20:34.211Z,94789.22
2023-02-14T11:21:40.502Z,94784.78
2023-02-14T11:22:37.096Z,94789.66
2023-02-14T11:23:45.204Z,94778.16
2023-02-14T11:24:42.395Z,94772.88
2023-02-14T11:25:39.076Z,94772.41
2023-02-14T11:26:35.844Z,94774.94
2023-02-14T11:27:33.225Z,94771.06
2023-02-14T11:28:29.981Z,94715.06
2023-02-14T11:29:33.685Z,94721.81
2023-02-14T11:30:35.271Z,94795.03
2023-02-14T11:31:37.760Z,94729.09
2023-02-14T11:32:40.836Z,94789.59
2023-02-14T11:33:44.191Z,94781.69
2023-02-14T11:35:00.500Z,94778.44
2023-02-14T11:35:58.144Z,94762.94
2023-02-14T11:36:54.864Z,94791.13
2023-02-14T11:37:54.135Z,94719.53
2023-02-14T11:39:21.844Z,94775.34
2023-02-14T11:40:35.364Z,94787.72
2023-02-14T11:41:50.105Z,94784.59
2023-02-14T11:42:51.600Z,94780.53
2023-02-14T11:43:52.437Z,94784.09
2023-02-14T11:44:56.096Z,94782.78
2023-02-14T11:46:05.912Z,94775.75
2023-02-14T11:47:19.556Z,94773.38
2023-02-14T11:48:39.453Z,94777.69
2023-02-14T11:49:36.470Z,94780.25
2023-02-14T11:50:42.791Z,94720.88
2023-02-14T11:52:14.771Z,94776.56
2023-02-14T11:53:27.748Z,94738.94
2023-02-14T11:54:37.708Z,94768.84
2023-02-14T11:55:37.484Z,94770.19
2023-02-14T11:57:00.135Z,94767.94